Winfield, Texas
Current Conditions -  °F | °C
As of 9:15 AM on Friday 31 Oct 2014 (Local Time) from KOSA Reporting Station
Clear Clear  
Wind Chill: 13°   Ceiling: Unl
Heat Index: 13°   Visibility: 10mi
Dew Point:   Wind: 13mph
Humidity: 61%   Direction: 330°NNW
Pressure: 30.26"   Gusts: NA
Location:  33.17°N, 95.11°W
Report Text: KOSA 311415Z AUTO 33011KT 10SM CLR 13/06 A3026 RMK AO1 T01340061
Loading
Personal Weather Stations






























Interactive Weather Map
Tropical Storm Tracking
New forecast layout! Learn more

10-Day Weather Forecast

Advertisements
Track Severe Weather on mobile